Time;durP1;ratioP1;P1;durP2;ratioP2;P2;SDS_P1;SDS_P2;PMS_P1;PMS_P2;Temp;Humidity;BMP_temperature;BMP_pressure;BME280_temperature;BME280_humidity;BME280_pressure;Samples;Min_cycle;Max_cycle;Signal;HPM_P1;HPM_P2
2021/12/12 00:02:43;;;;;;;;;;;;;;;;;;;;;
2021/12/12 00:06:22;;;;;;;;;;;;;;;;;;;;;
2021/12/12 00:09:26;;;;;;;11.50;1.42;;;;;;;11.94;81.16;100541.06;6173673;23;20013;-78
2021/12/12 00:12:15;;;;;;;21.02;3.00;;;;;;;11.70;81.98;100519.66;6147786;23;20006;-79
2021/12/12 00:14:43;;;;;;;9.68;2.40;;;;;;;11.84;81.95;100536.41;6163439;23;20009;-83
2021/12/12 00:17:13;;;;;;;9.77;1.40;;;;;;;11.88;81.19;100539.41;6211552;23;20013;-83
2021/12/12 00:19:42;;;;;;;14.65;1.95;;;;;;;11.81;81.60;100514.19;6236867;23;20001;-81
2021/12/12 00:22:22;;;;;;;6.32;1.58;;;;;;;11.96;81.16;100541.66;6208082;23;20015;-79
2021/12/12 00:24:54;;;;;;;21.25;2.33;;;;;;;11.82;81.62;100515.84;6236523;23;20011;-79
2021/12/12 00:27:48;;;;;;;;;;;;;;;;;;;;;
2021/12/12 00:30:47;;;;;;;12.38;2.42;;;;;;;11.97;81.28;100532.34;6227588;23;20013;-81
2021/12/12 00:37:39;;;;;;;15.43;2.55;;;;;;;11.92;81.28;100518.59;6142381;23;20093;-77
2021/12/12 00:40:22;;;;;;;12.20;1.70;;;;;;;11.88;81.70;100509.25;6161291;23;20043;-77
2021/12/12 00:42:48;;;;;;;21.20;2.25;;;;;;;11.97;81.63;100515.06;6221732;23;20032;-78
2021/12/12 00:45:17;;;;;;;11.05;1.85;;;;;;;11.88;81.30;100492.81;6196791;23;20327;-76
2021/12/12 00:47:45;;;;;;;11.70;2.08;;;;;;;11.99;81.32;100515.63;6200173;23;20004;-78
2021/12/12 00:50:26;;;;;;;8.45;1.92;;;;;;;12.03;81.29;100519.44;6202333;23;20009;-78
2021/12/12 00:52:54;;;;;;;5.18;1.30;;;;;;;12.02;81.16;100526.84;6226446;23;19998;-77
2021/12/12 00:55:22;;;;;;;4.30;1.00;;;;;;;12.13;81.01;100515.88;6226719;23;20001;-78
2021/12/12 00:57:52;;;;;;;5.18;1.10;;;;;;;12.10;80.84;100510.94;6183772;23;20017;-79
2021/12/12 01:00:43;;;;;;;12.13;1.20;;;;;;;12.14;80.85;100518.34;6236012;23;20005;-79
2021/12/12 01:03:10;;;;;;;3.17;1.17;;;;;;;12.15;80.97;100519.16;6199238;23;20054;-79
2021/12/12 01:05:37;;;;;;;4.60;0.95;;;;;;;12.27;80.96;100533.44;6224975;23;20004;-79
2021/12/12 01:08:10;;;;;;;2.63;1.30;;;;;;;12.34;80.84;100525.75;6196754;23;20039;-77
2021/12/12 01:10:45;;;;;;;1.30;0.68;;;;;;;12.37;80.57;100536.16;6225463;23;20003;-79
2021/12/12 01:13:11;;;;;;;9.80;1.10;;;;;;;12.32;80.46;100518.88;6224546;23;20007;-78
2021/12/12 01:16:00;;;;;;;5.47;0.90;;;;;;;12.41;80.81;100530.94;6197690;23;20005;-78
2021/12/12 01:18:30;;;;;;;8.25;1.13;;;;;;;12.28;80.64;100520.53;6226052;23;20432;-77
2021/12/12 01:21:00;;;;;;;8.85;1.08;;;;;;;12.35;81.15;100535.63;6198141;23;20008;-77
2021/12/12 01:23:26;;;;;;;1.65;0.65;;;;;;;12.38;80.93;100529.59;6196871;23;20007;-79
2021/12/12 01:26:02;;;;;;;6.35;0.60;;;;;;;12.31;81.21;100522.72;6223852;23;20044;-77
2021/12/12 01:28:31;;;;;;;1.45;0.70;;;;;;;12.36;81.33;100520.00;6199184;23;20005;-78
2021/12/12 01:30:59;;;;;;;6.95;0.80;;;;;;;12.32;81.43;100519.69;6222230;23;20950;-79
2021/12/12 01:33:35;;;;;;;3.10;0.50;;;;;;;12.48;81.23;100533.41;6196887;23;20068;-77
2021/12/12 01:36:28;;;;;;;4.30;0.73;;;;;;;12.38;81.24;100521.38;6221865;23;20004;-76
2021/12/12 01:38:58;;;;;;;3.08;0.55;;;;;;;12.52;81.94;100540.00;6221395;23;20059;-75
2021/12/12 01:41:27;;;;;;;3.65;0.40;;;;;;;12.46;81.52;100521.91;6221419;23;20005;-76
2021/12/12 01:43:58;;;;;;;5.43;0.50;;;;;;;12.52;81.62;100529.03;6221360;23;20011;-77
2021/12/12 01:46:34;;;;;;;1.13;0.63;;;;;;;12.48;81.81;100522.44;6224344;23;20502;-76
2021/12/12 01:49:09;;;;;;;6.32;0.60;;;;;;;12.43;81.63;100526.03;6222782;23;20056;-76
2021/12/12 01:51:45;;;;;;;1.58;0.43;;;;;;;12.46;82.36;100524.66;6194295;23;20051;-75
2021/12/12 01:54:13;;;;;;;4.32;0.60;;;;;;;12.35;82.73;100521.91;6223011;23;20004;-78
2021/12/12 01:56:53;;;;;;;3.50;0.50;;;;;;;12.37;82.80;100522.47;6195379;23;20016;-77
2021/12/12 01:59:26;;;;;;;2.85;0.52;;;;;;;12.36;83.02;100529.03;6221933;23;20206;-75
2021/12/12 02:01:58;;;;;;;0.90;0.30;;;;;;;12.37;83.24;100527.94;6193511;23;20112;-75
2021/12/12 02:04:29;;;;;;;3.63;0.43;;;;;;;12.42;82.70;100534.53;6194788;23;20078;-75
2021/12/12 02:06:58;;;;;;;6.15;0.55;;;;;;;12.34;83.47;100523.00;6222296;23;20000;-79
2021/12/12 02:09:28;;;;;;;0.82;0.28;;;;;;;12.33;83.04;100535.06;6221325;23;20084;-77
2021/12/12 02:11:56;;;;;;;4.65;0.40;;;;;;;12.43;82.80;100541.66;6222329;23;20000;-78
2021/12/12 02:14:35;;;;;;;;;;;;;;;;;;;;;
2021/12/12 02:17:22;;;;;;;1.45;0.63;;;;;;;12.40;83.63;100548.50;6222379;23;20027;-79
2021/12/12 02:20:43;;;;;;;2.55;0.50;;;;;;;12.33;83.05;100535.06;6198910;23;20324;-77
2021/12/12 02:37:30;;;;;;;0.65;0.50;;;;;;;12.39;83.34;100564.13;6224431;23;20062;-76
2021/12/12 02:39:56;;;;;;;8.93;0.85;;;;;;;12.39;83.52;100568.78;6196620;23;20309;-79
2021/12/12 02:42:25;;;;;;;2.22;0.75;;;;;;;12.35;82.93;100548.50;6193075;23;20021;-76
2021/12/12 02:44:57;;;;;;;3.80;0.52;;;;;;;12.39;82.96;100558.63;6192870;23;20008;-77
2021/12/12 02:47:32;;;;;;;3.03;0.40;;;;;;;12.38;83.19;100554.28;6169562;23;20009;-76
2021/12/12 02:50:10;;;;;;;1.60;0.73;;;;;;;12.51;83.18;100566.63;6191370;23;20009;-75
2021/12/12 02:52:48;;;;;;;;;;;;;;;;;;;;;
2021/12/12 02:55:22;;;;;;;4.68;0.57;;;;;;;12.51;82.97;100571.25;6192321;23;20047;-74
2021/12/12 02:57:48;;;;;;;3.40;0.65;;;;;;;12.52;83.43;100567.41;6193270;23;20011;-75
2021/12/12 03:00:18;;;;;;;1.02;0.50;;;;;;;12.54;83.49;100571.53;6192872;23;20012;-75
2021/12/12 03:02:48;;;;;;;0.63;0.20;;;;;;;12.57;83.36;100560.00;6192646;23;20389;-75
2021/12/12 03:05:42;;;;;;;;;;;;;;;;;;;;;
2021/12/12 03:11:43;;;;;;;2.20;0.40;;;;;;;12.55;82.87;100569.63;6192143;23;20016;-75
2021/12/12 03:14:17;;;;;;;3.15;0.43;;;;;;;12.62;82.94;100583.88;6192357;23;20009;-75
2021/12/12 03:16:44;;;;;;;4.32;0.50;;;;;;;12.56;83.67;100574.81;6190887;23;20013;-75
2021/12/12 03:19:28;;;;;;;1.10;0.50;;;;;;;12.55;83.64;100567.69;6192024;23;20005;-77
2021/12/12 03:31:22;;;;;;;1.00;0.10;;;;;;;12.74;82.84;100584.38;6194259;23;20088;-75
2021/12/12 03:33:49;;;;;;;1.05;0.30;;;;;;;12.72;83.17;100583.06;6193351;23;20060;-77
2021/12/12 03:36:53;;;;;;;4.60;0.43;;;;;;;12.79;82.98;100600.06;6195339;23;20009;-75
2021/12/12 03:46:10;;;;;;;;;;;;;;;;;;;;;
2021/12/12 03:51:50;;;;;;;0.50;0.22;;;;;;;12.82;82.90;100587.69;6190129;23;20001;-76
2021/12/12 03:54:16;;;;;;;1.08;0.28;;;;;;;12.81;82.79;100586.06;6191871;23;20005;-76
2021/12/12 04:00:36;;;;;;;;;;;;;;;;;;;;;
2021/12/12 04:23:39;;;;;;;;;;;;;;;;;;;;;
2021/12/12 04:43:27;;;;;;;1.42;0.25;;;;;;;12.96;80.45;100599.72;6163369;23;20052;-77
2021/12/12 04:45:58;;;;;;;1.33;0.28;;;;;;;12.98;80.50;100603.03;6165021;23;20013;-76
2021/12/12 04:51:32;;;;;;;1.85;0.30;;;;;;;12.96;80.71;100605.22;6165067;23;20036;-77
2021/12/12 04:54:11;;;;;;;0.57;0.15;;;;;;;12.97;80.72;100615.09;6137784;23;20011;-77
2021/12/12 05:03:50;;;;;;;0.88;0.15;;;;;;;12.88;80.57;100608.56;6166469;23;20073;-77
2021/12/12 05:44:30;;;;;;;3.78;0.98;;;;;;;12.90;79.73;100658.47;5874867;24;20029;-76
2021/12/12 06:00:02;;;;;;;;;;;;;;;;;;;;;
2021/12/12 06:12:44;;;;;;;1.15;0.63;;;;;;;12.75;79.15;100698.56;5748624;25;20023;-76
2021/12/12 06:15:16;;;;;;;3.65;0.90;;;;;;;12.68;79.42;100698.00;5745103;24;20004;-76
2021/12/12 06:22:03;;;;;;;6.35;1.10;;;;;;;12.65;80.08;100695.81;5987170;23;20036;-79
2021/12/12 06:28:28;;;;;;;2.92;0.85;;;;;;;12.61;80.27;100702.94;5988454;24;20073;-76
2021/12/12 06:37:48;;;;;;;1.90;0.68;;;;;;;12.62;79.86;100714.75;6087152;23;20090;-77
2021/12/12 06:40:20;;;;;;;1.77;0.40;;;;;;;12.55;79.55;100704.03;6133264;23;20013;-77
2021/12/12 06:42:49;;;;;;;3.40;0.60;;;;;;;12.64;79.61;100718.03;6152685;23;20080;-76
2021/12/12 06:48:55;;;;;;;;;;;;;;;;;;;;;
2021/12/12 06:52:20;;;;;;;3.85;1.00;;;;;;;12.59;80.12;100729.81;6101652;23;20353;-77
2021/12/12 06:54:56;;;;;;;13.18;1.30;;;;;;;12.39;80.12;100716.88;6110780;23;20468;-77
2021/12/12 06:57:22;;;;;;;10.88;1.88;;;;;;;12.23;80.74;100713.28;6195417;23;20015;-76
2021/12/12 06:59:49;;;;;;;10.75;1.70;;;;;;;12.28;80.79;100731.66;6196978;23;20692;-79
2021/12/12 07:02:28;;;;;;;7.80;1.60;;;;;;;12.26;80.87;100728.38;6172648;23;20009;-78
2021/12/12 07:04:54;;;;;;;7.35;1.15;;;;;;;12.28;81.60;100732.50;6225828;23;20008;-77
2021/12/12 07:07:27;;;;;;;13.57;2.10;;;;;;;12.12;81.47;100717.06;6197947;23;20084;-77
2021/12/12 07:10:03;;;;;;;;;;;;;;;;;;;;;
2021/12/12 07:12:53;;;;;;;;;;;;;;;;;;;;;
2021/12/12 07:15:20;;;;;;;5.20;1.27;;;;;;;11.90;81.83;100720.84;6102660;23;20098;-77
2021/12/12 07:17:56;;;;;;;8.23;1.17;;;;;;;11.83;81.25;100714.78;6102972;23;20010;-77
2021/12/12 07:20:26;;;;;;;7.20;1.20;;;;;;;11.76;81.92;100719.66;6078346;23;20077;-78
2021/12/12 07:22:53;;;;;;;13.25;2.20;;;;;;;11.74;82.45;100721.81;6098088;23;20014;-78
2021/12/12 07:25:26;;;;;;;11.57;2.53;;;;;;;11.74;82.52;100735.53;6102789;23;20030;-77
2021/12/12 07:27:52;;;;;;;18.20;2.13;;;;;;;11.66;82.90;100743.16;6078004;23;20035;-78
2021/12/12 07:30:38;;;;;;;;;;;;;;;;;;;;;
2021/12/12 07:33:05;;;;;;;13.63;1.67;;;;;;;11.69;83.69;100739.88;6141023;23;20029;-77
2021/12/12 07:35:40;;;;;;;17.08;1.30;;;;;;;11.57;83.67;100722.84;6193463;23;20001;-78
2021/12/12 07:38:07;;;;;;;;;;;;;;;11.78;83.32;100747.59;6189695;23;20001;-77
2021/12/12 07:40:35;;;;;;;10.90;1.00;;;;;;;11.62;83.60;100733.84;6191629;23;19971;-77
2021/12/12 07:43:41;;;;;;;18.15;2.85;;;;;;;11.74;83.48;100743.75;6192968;23;20052;-75
2021/12/12 07:46:07;;;;;;;13.85;2.10;;;;;;;11.69;83.78;100741.81;6193397;23;20020;-77
2021/12/12 07:59:35;;;;;;;;;;;;;;;;;;;;;
2021/12/12 08:02:07;;;;;;;17.75;2.78;;;;;;;11.63;84.12;100749.16;6173202;23;20033;-78
2021/12/12 08:48:01;;;;;;;;;;;;;;;;;;;;;
2021/12/12 08:58:05;;;;;;;25.55;2.60;;;;;;;11.79;85.12;100801.31;6226351;23;20036;-76
2021/12/12 09:03:54;;;;;;;13.15;2.45;;;;;;;11.91;84.91;100815.63;6224983;23;20031;-76
2021/12/12 09:06:37;;;;;;;12.85;2.03;;;;;;;11.91;84.39;100810.16;6224088;23;20463;-76
2021/12/12 09:09:17;;;;;;;18.05;2.10;;;;;;;12.09;84.34;100822.63;6201332;23;20305;-77
2021/12/12 09:12:15;;;;;;;19.17;2.67;;;;;;;12.08;84.21;100803.72;6230577;23;19996;-76
2021/12/12 09:14:48;;;;;;;15.02;2.95;;;;;;;12.31;84.11;100825.19;6178240;23;20005;-76
2021/12/12 09:17:49;;;;;;;12.52;2.03;;;;;;;12.30;83.67;100809.81;6199215;23;20001;-76
2021/12/12 09:20:32;;;;;;;11.65;1.70;;;;;;;12.59;83.96;100836.81;6158964;23;20004;-77
2021/12/12 09:23:07;;;;;;;9.82;1.60;;;;;;;12.74;82.98;100849.75;6225511;23;20005;-76
2021/12/12 09:25:57;;;;;;;19.00;2.35;;;;;;;12.83;82.56;100841.81;6224070;23;20459;-77
2021/12/12 09:28:45;;;;;;;28.25;2.67;;;;;;;12.87;82.33;100838.25;6199194;23;20004;-76
2021/12/12 09:31:30;;;;;;;17.75;2.20;;;;;;;13.06;82.26;100844.03;6198975;23;20005;-75
2021/12/12 09:34:10;;;;;;;15.00;2.05;;;;;;;13.20;81.79;100838.00;6225092;23;20000;-76
2021/12/12 09:36:43;;;;;;;10.25;2.25;;;;;;;13.64;81.09;100861.41;6224628;23;20055;-76
2021/12/12 09:39:19;;;;;;;20.17;2.90;;;;;;;13.99;79.57;100852.28;6194866;23;20011;-76
2021/12/12 09:41:59;;;;;;;11.05;1.75;;;;;;;14.14;78.91;100865.16;6220132;23;19996;-75
2021/12/12 09:44:33;;;;;;;6.82;1.65;;;;;;;14.15;78.16;100861.31;6192050;23;20084;-75
2021/12/12 09:47:31;;;;;;;11.27;2.03;;;;;;;14.00;77.87;100864.91;6220342;23;20084;-77
2021/12/12 09:53:46;;;;;;;12.45;1.40;;;;;;;13.84;78.11;100871.56;6225000;23;20094;-78
2021/12/12 09:56:25;;;;;;;11.45;1.42;;;;;;;13.82;77.83;100879.25;6152433;23;20011;-74
2021/12/12 09:59:11;;;;;;;9.18;1.92;;;;;;;13.83;77.63;100875.38;6199801;23;20000;-76
2021/12/12 10:01:47;;;;;;;15.30;1.98;;;;;;;13.75;77.11;100863.84;6197308;23;20035;-75
2021/12/12 10:04:51;;;;;;;23.00;2.45;;;;;;;13.94;77.09;100882.53;6221699;23;20040;-77
2021/12/12 10:07:16;;;;;;;15.15;1.95;;;;;;;14.17;77.36;100891.31;6214470;23;20120;-76
2021/12/12 10:10:08;;;;;;;25.35;1.98;;;;;;;14.77;76.49;100894.13;6220002;23;20001;-76
2021/12/12 10:12:42;;;;;;;13.85;1.95;;;;;;;15.23;74.05;100879.25;6218681;23;20080;-75
2021/12/12 10:15:18;;;;;;;8.55;1.77;;;;;;;15.68;73.34;100891.88;6196069;23;20008;-76
2021/12/12 10:18:01;;;;;;;11.88;2.72;;;;;;;16.33;71.35;100884.38;6193228;23;20389;-78
2021/12/12 10:20:49;;;;;;;12.23;1.23;;;;;;;16.62;69.82;100900.00;6194405;23;20043;-76
2021/12/12 10:23:23;;;;;;;7.65;1.40;;;;;;;16.60;68.83;100899.50;6221588;23;20084;-75
2021/12/12 10:26:07;;;;;;;2.65;0.98;;;;;;;16.72;69.22;100891.63;6221165;23;20012;-76
2021/12/12 10:28:43;;;;;;;7.28;1.92;;;;;;;16.79;67.81;100875.47;6222767;23;20016;-76
2021/12/12 10:31:11;;;;;;;;;;;;;;;17.03;66.76;100897.56;6195565;23;20339;-76
2021/12/12 10:33:55;;;;;;;7.00;1.38;;;;;;;16.83;67.61;100884.81;6221968;23;19998;-75
2021/12/12 10:36:35;;;;;;;6.13;1.15;;;;;;;16.72;66.63;100891.63;6218153;23;20019;-76
2021/12/12 10:39:31;;;;;;;6.43;1.02;;;;;;;16.68;66.38;100899.66;6222613;23;20005;-75
2021/12/12 10:42:00;;;;;;;9.15;1.42;;;;;;;16.39;66.89;100900.56;6211021;23;20431;-74
2021/12/12 10:44:31;;;;;;;6.32;0.80;;;;;;;16.18;67.81;100899.97;6193563;23;20013;-74
2021/12/12 10:47:12;;;;;;;2.45;0.57;;;;;;;16.08;68.02;100900.06;6221203;23;20012;-74
2021/12/12 10:50:11;;;;;;;5.00;0.98;;;;;;;15.96;68.65;100891.34;6222622;23;20001;-75
2021/12/12 10:52:47;;;;;;;2.67;0.35;;;;;;;15.85;68.64;100902.50;6225171;23;19993;-75
2021/12/12 10:55:32;;;;;;;2.28;0.65;;;;;;;15.65;68.76;100897.13;6225766;23;20005;-74
2021/12/12 10:58:06;;;;;;;3.08;0.60;;;;;;;15.45;69.64;100896.19;6224840;23;20008;-75
2021/12/12 11:00:48;;;;;;;3.92;0.73;;;;;;;15.34;70.10;100897.38;6199213;23;20004;-74
2021/12/12 11:03:33;;;;;;;7.53;0.60;;;;;;;15.18;70.38;100888.38;6227672;23;20004;-74
2021/12/12 11:06:20;;;;;;;4.38;0.52;;;;;;;15.22;70.45;100888.66;6199224;23;20010;-76
2021/12/12 11:09:24;;;;;;;1.20;0.20;;;;;;;15.27;71.20;100896.88;6172240;23;20013;-74
2021/12/12 11:11:58;;;;;;;1.73;0.28;;;;;;;15.18;70.75;100888.38;6195445;23;20015;-75
2021/12/12 11:18:00;;;;;;;0.80;0.40;;;;;;;15.36;70.78;100879.44;6221614;23;20046;-75
2021/12/12 11:20:27;;;;;;;2.20;0.30;;;;;;;15.24;70.28;100880.91;6223668;23;19996;-76
2021/12/12 11:22:57;;;;;;;1.65;0.57;;;;;;;15.02;70.85;100898.66;6224116;23;20016;-76
2021/12/12 11:25:28;;;;;;;0.95;0.43;;;;;;;14.92;71.46;100898.72;6223843;23;20013;-76
2021/12/12 11:28:06;;;;;;;2.15;0.52;;;;;;;14.75;72.19;100897.16;6224350;23;20062;-75
2021/12/12 11:30:45;;;;;;;5.78;1.00;;;;;;;14.62;72.88;100898.59;6224765;23;19993;-74
2021/12/12 11:33:14;;;;;;;1.60;0.65;;;;;;;14.51;73.22;100896.13;6225600;23;20000;-76
2021/12/12 11:35:43;;;;;;;2.80;0.57;;;;;;;14.37;73.30;100891.25;6223790;23;20000;-75
2021/12/12 11:38:53;;;;;;;1.08;0.50;;;;;;;14.36;73.96;100895.09;6194786;23;20008;-76
2021/12/12 11:41:53;;;;;;;1.02;0.50;;;;;;;14.23;73.92;100884.69;6182963;23;20000;-76
2021/12/12 11:44:54;;;;;;;1.55;0.25;;;;;;;14.31;74.16;100898.69;6194747;23;20016;-76
2021/12/12 11:47:35;;;;;;;1.83;0.35;;;;;;;14.33;74.45;100901.16;6158081;23;20033;-75
2021/12/12 11:50:00;;;;;;;3.90;0.45;;;;;;;14.41;74.29;100900.59;6198408;23;20012;-72
2021/12/12 11:52:55;;;;;;;0.75;0.20;;;;;;;14.59;73.42;100904.63;6221717;23;20502;-75
2021/12/12 11:55:51;;;;;;;3.65;0.95;;;;;;;14.62;72.76;100886.78;6198329;23;20001;-75
2021/12/12 11:58:29;;;;;;;6.28;0.57;;;;;;;14.66;72.52;100894.19;6226427;23;20019;-77
2021/12/12 12:04:23;;;;;;;3.15;0.75;;;;;;;15.23;70.45;100879.25;6226083;23;20023;-79
2021/12/12 12:07:13;;;;;;;3.10;0.52;;;;;;;15.18;69.98;100889.19;6200248;23;20004;-76
2021/12/12 12:10:01;;;;;;;1.83;0.38;;;;;;;14.98;69.94;100889.31;6208027;23;20087;-78
2021/12/12 12:13:17;;;;;;;;;;;;;;;;;;;;;
2021/12/12 12:15:59;;;;;;;1.17;0.40;;;;;;;14.72;71.05;100892.22;6208457;23;20000;-78
2021/12/12 12:18:43;;;;;;;1.23;0.40;;;;;;;14.58;71.40;100891.16;6216535;23;19991;-79
2021/12/12 12:21:52;;;;;;;1.55;0.43;;;;;;;14.60;72.20;100899.94;6213166;23;19980;-79
2021/12/12 12:24:54;;;;;;;;;;;;;;;;;;;;;
2021/12/12 12:27:35;;;;;;;0.95;0.32;;;;;;;14.88;71.07;100894.88;6238579;23;20011;-79
2021/12/12 12:30:20;;;;;;;2.17;0.60;;;;;;;14.75;70.79;100894.41;6186145;23;20091;-77
2021/12/12 12:33:16;;;;;;;3.70;0.28;;;;;;;14.58;71.03;100896.66;6210039;23;20005;-78
2021/12/12 12:36:29;;;;;;;;;;;;;;;;;;;;;
2021/12/12 12:39:38;;;;;;;1.48;0.10;;;;;;;14.23;72.71;100884.69;6234508;23;20000;-78
2021/12/12 12:42:56;;;;;;;1.30;0.30;;;;;;;14.16;72.88;100889.66;6235422;23;20008;-77
2021/12/12 12:57:56;;;;;;;;;;;;;;;;;;;;;
2021/12/12 13:04:47;;;;;;;;;;;;;;;;;;;;;
2021/12/12 13:07:49;;;;;;;0.93;0.17;;;;;;;14.41;73.85;100881.31;6145787;23;20493;-78
2021/12/12 13:10:18;;;;;;;3.13;0.43;;;;;;;14.43;73.02;100859.84;6173065;23;20008;-79
2021/12/12 13:13:06;;;;;;;;;;;;;;;;;;;;;
2021/12/12 13:15:51;;;;;;;1.75;0.28;;;;;;;14.79;72.27;100884.50;6231520;23;20004;-79
2021/12/12 13:18:38;;;;;;;1.55;0.65;;;;;;;15.92;71.12;100880.09;6207700;23;20008;-78
2021/12/12 13:21:38;;;;;;;0.90;0.30;;;;;;;17.01;66.31;100887.94;6205162;23;20001;-78
2021/12/12 13:24:21;;;;;;;1.10;0.40;;;;;;;16.69;64.30;100864.56;6232705;23;20056;-79
2021/12/12 13:27:09;;;;;;;2.50;0.50;;;;;;;16.30;65.24;100873.91;6204370;23;20341;-75
2021/12/12 13:30:57;;;;;;;2.70;0.52;;;;;;;15.82;65.92;100869.97;6204699;23;20006;-79
2021/12/12 13:36:41;;;;;;;1.73;0.25;;;;;;;14.83;69.06;100887.50;6209114;23;20016;-79
2021/12/12 13:39:35;;;;;;;2.55;0.60;;;;;;;14.40;71.60;100863.16;6204163;23;20042;-79
2021/12/12 13:42:28;;;;;;;2.03;0.57;;;;;;;14.41;73.23;100873.06;6204416;23;20041;-78
2021/12/12 13:45:25;;;;;;;3.53;0.85;;;;;;;15.15;72.01;100872.44;6202035;23;19997;-79
2021/12/12 13:51:44;;;;;;;2.15;0.45;;;;;;;14.95;70.19;100874.22;6080845;23;20018;-79
2021/12/12 13:54:14;;;;;;;3.70;0.70;;;;;;;14.69;70.21;100875.44;6205188;23;20082;-82
2021/12/12 13:57:20;;;;;;;1.38;0.60;;;;;;;14.47;70.49;100895.88;6197858;23;20459;-79
2021/12/12 14:00:19;;;;;;;2.38;0.80;;;;;;;14.26;70.85;100867.59;6197237;23;20009;-79
2021/12/12 14:03:16;;;;;;;4.25;0.65;;;;;;;13.92;71.29;100841.56;6200062;23;20005;-78
2021/12/12 14:05:51;;;;;;;4.00;0.68;;;;;;;13.90;71.54;100853.94;6185206;23;20012;-76
2021/12/12 14:08:47;;;;;;;3.45;0.55;;;;;;;13.83;71.88;100842.41;6198371;23;20004;-78
2021/12/12 14:11:35;;;;;;;2.40;0.68;;;;;;;13.77;72.09;100849.88;6184582;23;20424;-76
2021/12/12 14:17:20;;;;;;;2.08;0.50;;;;;;;13.77;71.53;100853.44;6164387;23;20004;-76
2021/12/12 14:53:36;;;;;;;3.92;0.82;;;;;;;13.47;73.90;100865.25;6178891;22;20508;-77
2021/12/12 15:00:02;;;;;;;5.88;0.98;;;;;;;13.24;74.56;100874.81;6149232;23;20506;-77
2021/12/12 15:03:07;;;;;;;;;;;;;;;;;;;;;
2021/12/12 15:05:56;;;;;;;3.13;0.55;;;;;;;13.10;75.32;100871.78;6194589;23;20021;-76
2021/12/12 15:08:31;;;;;;;5.75;0.60;;;;;;;12.97;74.84;100847.63;6195437;23;20547;-77
2021/12/12 15:11:25;;;;;;;1.23;0.35;;;;;;;13.03;74.69;100852.81;6174685;23;20328;-77
2021/12/12 15:13:55;;;;;;;5.90;0.82;;;;;;;12.90;75.09;100832.22;6197362;23;20258;-79
2021/12/12 15:16:50;;;;;;;1.58;0.80;;;;;;;13.05;74.82;100850.66;6199857;23;20005;-78
2021/12/12 15:19:19;;;;;;;3.35;1.05;;;;;;;13.02;75.13;100862.16;6168405;23;20012;-78
2021/12/12 15:21:56;;;;;;;5.78;1.58;;;;;;;12.98;74.91;100852.00;6197291;23;20077;-77
2021/12/12 15:24:25;;;;;;;8.20;3.97;;;;;;;12.96;75.24;100857.75;6195953;23;20001;-76
2021/12/12 15:27:06;;;;;;;14.88;6.68;;;;;;;13.01;75.21;100848.69;6197475;23;20036;-75
2021/12/12 15:29:36;;;;;;;21.02;8.68;;;;;;;12.99;75.07;100857.22;6194438;23;20039;-77
2021/12/12 15:32:12;;;;;;;10.15;3.60;;;;;;;12.98;75.51;100857.47;6194467;23;20004;-77
2021/12/12 15:34:42;;;;;;;7.15;2.53;;;;;;;12.87;75.16;100843.75;6189894;23;20150;-76
2021/12/12 15:37:13;;;;;;;6.38;1.15;;;;;;;12.89;75.95;100854.44;6195268;23;20428;-74
2021/12/12 15:39:57;;;;;;;3.30;0.95;;;;;;;12.80;75.68;100859.63;6195275;23;20005;-77
2021/12/12 15:42:30;;;;;;;1.67;0.68;;;;;;;12.87;75.54;100870.38;6197161;23;20036;-77
2021/12/12 15:45:07;;;;;;;3.53;0.98;;;;;;;12.80;75.60;100850.59;6194849;23;20104;-77
2021/12/12 15:47:38;;;;;;;11.38;0.70;;;;;;;12.83;75.76;100863.78;6195507;23;20080;-77
2021/12/12 15:50:15;;;;;;;2.88;0.77;;;;;;;12.81;75.89;100871.47;6195590;23;20110;-76
2021/12/12 15:52:54;;;;;;;5.47;1.33;;;;;;;12.82;75.13;100862.94;6193594;23;20376;-76
2021/12/12 15:55:24;;;;;;;5.90;0.93;;;;;;;12.66;75.41;100856.59;6193818;23;20493;-75
2021/12/12 15:57:58;;;;;;;1.58;0.82;;;;;;;12.78;75.85;100877.50;6193270;23;20067;-77
2021/12/12 16:03:58;;;;;;;5.78;0.93;;;;;;;12.49;75.98;100837.59;6186514;23;20005;-77
2021/12/12 16:06:43;;;;;;;5.13;1.17;;;;;;;12.63;75.97;100876.34;6195841;23;20001;-79
2021/12/12 16:09:33;;;;;;;10.97;0.73;;;;;;;12.69;76.20;100878.00;6191203;23;20071;-77
2021/12/12 16:12:12;;;;;;;4.93;1.27;;;;;;;12.52;75.93;100852.69;6199373;23;20005;-79
2021/12/12 16:14:43;;;;;;;3.47;0.80;;;;;;;12.51;75.82;100862.84;6195613;23;20001;-80
2021/12/12 16:17:20;;;;;;;5.28;0.90;;;;;;;12.60;76.40;100873.28;6197195;23;20009;-78
2021/12/12 16:19:59;;;;;;;4.43;0.88;;;;;;;12.56;75.75;100873.03;6194427;23;20301;-79
2021/12/12 16:22:48;;;;;;;1.20;0.32;;;;;;;12.47;76.13;100858.16;6200218;23;20059;-77
2021/12/12 16:25:16;;;;;;;4.30;0.70;;;;;;;12.44;75.73;100853.19;6196733;23;20328;-80
2021/12/12 16:27:48;;;;;;;8.50;0.75;;;;;;;12.50;76.21;100871.31;6198240;23;20004;-78
2021/12/12 16:33:54;;;;;;;6.35;0.70;;;;;;;12.39;75.81;100849.34;6154273;23;20032;-80
2021/12/12 16:37:16;;;;;;;2.50;0.70;;;;;;;12.29;76.15;100843.00;6196885;23;20044;-78
2021/12/12 16:43:25;;;;;;;;;;;;;;;;;;;;;
2021/12/12 16:49:41;;;;;;;1.88;0.88;;;;;;;12.45;75.71;100869.38;6098187;23;20061;-80
2021/12/12 16:52:14;;;;;;;8.75;0.95;;;;;;;12.27;75.39;100839.72;6106886;23;20014;-83
2021/12/12 17:01:55;;;;;;;6.03;1.13;;;;;;;12.37;75.46;100878.97;6080497;23;20022;-82
2021/12/12 17:07:52;;;;;;;4.75;1.27;;;;;;;12.25;75.35;100870.16;6061263;23;20034;-76
2021/12/12 17:13:44;;;;;;;7.40;1.33;;;;;;;12.34;75.71;100878.69;6094658;23;20089;-77
2021/12/12 17:16:40;;;;;;;5.47;2.13;;;;;;;12.18;75.47;100858.59;6132245;23;20005;-76
2021/12/12 17:19:07;;;;;;;6.50;1.40;;;;;;;12.26;75.98;100870.97;6109495;23;20855;-76
2021/12/12 17:22:20;;;;;;;13.85;1.40;;;;;;;12.12;75.60;100865.13;6108774;23;20045;-77
2021/12/12 17:24:29;;;;;;;7.97;1.48;;;;;;;12.29;75.32;100875.91;6121501;23;20106;-76
2021/12/12 17:27:19;;;;;;;;;;;;;;;;;;;;;
2021/12/12 17:29:58;;;;;;;3.85;0.68;;;;;;;12.11;75.06;100852.50;6193099;23;20009;-82
2021/12/12 17:33:18;;;;;;;6.90;1.33;;;;;;;12.22;75.31;100868.75;6199645;23;19994;-82
2021/12/12 17:36:11;;;;;;;7.93;1.63;;;;;;;12.19;75.51;100866.53;6201410;23;20001;-84
2021/12/12 17:39:25;;;;;;;7.57;1.25;;;;;;;12.10;75.13;100840.69;6198655;23;20008;-81
2021/12/12 17:42:02;;;;;;;4.40;1.50;;;;;;;12.26;75.36;100860.81;6196075;23;20800;-83
2021/12/12 17:45:30;;;;;;;;;;;;;;;;;;;;;
2021/12/12 17:59:04;;;;;;;;;;;;;;;;;;;;;
2021/12/12 22:23:14;;;;;;;8.93;0.60;;;;;;;12.34;69.55;100900.63;6203590;22;20099;-78
2021/12/12 22:25:56;;;;;;;1.67;0.20;;;;;;;12.47;69.16;100923.97;6197891;23;20012;-77
2021/12/12 22:28:42;;;;;;;1.23;0.50;;;;;;;12.34;69.43;100900.63;6222538;23;20000;-77
2021/12/12 22:31:15;;;;;;;0.70;0.35;;;;;;;12.40;69.58;100916.00;6219957;23;20004;-76
2021/12/12 22:33:54;;;;;;;1.77;0.38;;;;;;;12.38;69.50;100908.06;6193239;23;20005;-76
2021/12/12 22:41:04;;;;;;;2.95;0.40;;;;;;;12.36;69.43;100909.41;5147632;27;19941;-77
2021/12/12 22:43:51;;;;;;;3.97;0.98;;;;;;;12.45;69.47;100932.47;5123774;27;20472;-73
2021/12/12 22:46:18;;;;;;;2.10;0.70;;;;;;;12.37;69.84;100928.31;5139321;27;20023;-74
2021/12/12 22:48:55;;;;;;;4.45;0.68;;;;;;;12.30;69.40;100918.69;5122733;27;20039;-75
2021/12/12 22:51:40;;;;;;;4.50;0.90;;;;;;;12.33;70.43;100932.69;5143311;27;20484;-74
2021/12/12 22:54:20;;;;;;;8.35;0.80;;;;;;;12.30;69.96;100924.19;5145602;27;20027;-75
2021/12/12 22:56:52;;;;;;;1.17;0.60;;;;;;;12.14;70.06;100912.28;5129051;27;20023;-75
2021/12/12 22:59:32;;;;;;;4.80;0.40;;;;;;;12.19;70.50;100921.38;5119393;27;20425;-76
2021/12/12 23:02:44;;;;;;;2.55;0.77;;;;;;;12.33;70.56;100932.69;5143444;27;20075;-75
2021/12/12 23:06:32;;;;;;;;;;;;;;;;;;;;;
2021/12/12 23:19:54;;;;;;;4.15;0.60;;;;;;;12.47;69.73;100948.66;5006945;28;20144;-77
2021/12/12 23:22:26;;;;;;;1.90;0.75;;;;;;;12.33;70.32;100920.91;5030611;28;20432;-79
2021/12/12 23:24:58;;;;;;;1.27;0.40;;;;;;;12.47;69.80;100948.66;5111238;28;20047;-78
2021/12/12 23:28:09;;;;;;;1.45;0.60;;;;;;;12.40;70.19;100943.44;5103403;28;20040;-76
2021/12/12 23:30:25;;;;;;;1.73;0.60;;;;;;;12.51;70.30;100955.28;5109210;28;20036;-75
2021/12/12 23:32:53;;;;;;;4.03;0.85;;;;;;;12.34;70.17;100945.31;5106079;28;20055;-76